Time;durP1;ratioP1;P1;durP2;ratioP2;P2;SDS_P1;SDS_P2;PMS_P1;PMS_P2;Temp;Humidity;BMP_temperature;BMP_pressure;BME280_temperature;BME280_humidity;BME280_pressure;Samples;Min_cycle;Max_cycle;Signal;HPM_P1;HPM_P2
2023/04/09 00:00:09;;;;;;;7.37;5.80;;;;;;;;;;5047211;28;20213;-77
2023/04/09 00:02:39;;;;;;;9.17;6.00;;;;;;;;;;5045433;28;20202;-77
2023/04/09 00:05:06;;;;;;;10.03;7.30;;;;;;;;;;5040644;28;20229;-77
2023/04/09 00:07:32;;;;;;;8.13;6.47;;;;;;;;;;5040407;28;20190;-78
2023/04/09 00:09:58;;;;;;;9.43;7.40;;;;;;;;;;5051518;28;20278;-77
2023/04/09 00:12:24;;;;;;;10.40;7.70;;;;;;;;;;5059142;28;20196;-77
2023/04/09 00:14:51;;;;;;;9.10;6.90;;;;;;;;;;5051564;28;21265;-79
2023/04/09 00:17:17;;;;;;;11.17;8.07;;;;;;;;;;5046262;28;20283;-78
2023/04/09 00:19:43;;;;;;;8.23;6.70;;;;;;;;;;5051717;28;20182;-78
2023/04/09 00:22:09;;;;;;;8.40;6.57;;;;;;;;;;5050053;28;20221;-76
2023/04/09 00:24:35;;;;;;;9.67;7.33;;;;;;;;;;5056941;28;20205;-77
2023/04/09 00:27:02;;;;;;;9.10;7.47;;;;;;;;;;5051971;28;20633;-77
2023/04/09 00:29:28;;;;;;;9.87;7.50;;;;;;;;;;5042244;28;20190;-77
2023/04/09 00:31:54;;;;;;;8.97;6.83;;;;;;;;;;5049265;28;20194;-79
2023/04/09 00:34:20;;;;;;;8.60;7.00;;;;;;;;;;5041991;28;20182;-77
2023/04/09 00:36:46;;;;;;;8.53;6.67;;;;;;;;;;5049265;28;20232;-77
2023/04/09 00:39:12;;;;;;;8.83;7.00;;;;;;;;;;5048342;28;20185;-76
2023/04/09 00:41:39;;;;;;;9.80;7.23;;;;;;;;;;5050220;28;20518;-79
2023/04/09 00:44:06;;;;;;;11.43;8.13;;;;;;;;;;5047426;28;20205;-77
2023/04/09 00:46:32;;;;;;;8.10;7.10;;;;;;;;;;5049141;28;20186;-78
2023/04/09 00:48:59;;;;;;;9.50;7.63;;;;;;;;;;5049838;28;20265;-78
2023/04/09 00:51:25;;;;;;;9.60;7.40;;;;;;;;;;5047874;28;20735;-76
2023/04/09 00:53:52;;;;;;;10.70;8.10;;;;;;;;;;5049042;28;20212;-77
2023/04/09 00:56:20;;;;;;;10.40;7.97;;;;;;;;;;5049809;28;20178;-77
2023/04/09 00:58:47;;;;;;;10.23;8.03;;;;;;;;;;5033938;28;20189;-80
2023/04/09 01:01:13;;;;;;;9.57;7.93;;;;;;;;;;5054223;28;20197;-77
2023/04/09 01:03:39;;;;;;;12.80;8.70;;;;;;;;;;5055473;28;20210;-77
2023/04/09 01:06:06;;;;;;;11.67;9.10;;;;;;;;;;5043743;28;20184;-77
2023/04/09 01:08:41;;;;;;;11.77;8.63;;;;;;;;;;5038957;28;20198;-80
2023/04/09 01:11:14;;;;;;;10.07;7.77;;;;;;;;;;5029670;28;20185;-76
2023/04/09 01:13:58;;;;;;;11.13;8.30;;;;;;;;;;5043055;28;20329;-76
2023/04/09 01:16:26;;;;;;;12.63;9.07;;;;;;;;;;5042026;28;20232;-82
2023/04/09 01:18:55;;;;;;;10.07;8.00;;;;;;;;;;5047439;28;20732;-76
2023/04/09 01:21:26;;;;;;;12.93;9.90;;;;;;;;;;5044723;28;20182;-76
2023/04/09 01:23:57;;;;;;;11.77;9.17;;;;;;;;;;5062299;28;20711;-78
2023/04/09 01:26:48;;;;;;;13.03;8.90;;;;;;;;;;5030960;28;20186;-77
2023/04/09 01:29:16;;;;;;;13.03;9.50;;;;;;;;;;5048143;28;20239;-76
2023/04/09 01:31:43;;;;;;;12.03;9.00;;;;;;;;;;5048223;28;20232;-76
2023/04/09 01:34:10;;;;;;;12.23;9.20;;;;;;;;;;5049482;28;20190;-75
2023/04/09 01:36:37;;;;;;;12.40;9.57;;;;;;;;;;5048950;28;20694;-75
2023/04/09 01:39:04;;;;;;;15.53;9.90;;;;;;;;;;5047520;28;20265;-76
2023/04/09 01:41:32;;;;;;;14.00;9.97;;;;;;;;;;5031572;28;20211;-75
2023/04/09 01:44:00;;;;;;;13.90;10.27;;;;;;;;;;5040652;28;20649;-76
2023/04/09 01:46:33;;;;;;;13.27;10.40;;;;;;;;;;5031052;28;20178;-75
2023/04/09 01:49:00;;;;;;;12.17;9.50;;;;;;;;;;5048026;28;20178;-76
2023/04/09 01:51:26;;;;;;;11.70;9.37;;;;;;;;;;5047793;28;20195;-79
2023/04/09 01:53:52;;;;;;;11.97;9.27;;;;;;;;;;5025179;28;20202;-76
2023/04/09 01:56:20;;;;;;;13.13;9.93;;;;;;;;;;5030553;28;20642;-79
2023/04/09 01:58:46;;;;;;;15.00;10.17;;;;;;;;;;5049101;28;20912;-77
2023/04/09 02:01:13;;;;;;;14.03;10.17;;;;;;;;;;5027203;28;20198;-75
2023/04/09 02:03:48;;;;;;;13.03;10.00;;;;;;;;;;5047374;28;20271;-76
2023/04/09 02:06:33;;;;;;;14.03;10.67;;;;;;;;;;5029649;28;20186;-76
2023/04/09 02:09:00;;;;;;;13.73;9.93;;;;;;;;;;5028539;28;20247;-76
2023/04/09 02:11:28;;;;;;;13.17;9.83;;;;;;;;;;5047586;28;20261;-76
2023/04/09 02:13:56;;;;;;;13.30;9.23;;;;;;;;;;5045556;28;20213;-77
2023/04/09 02:16:23;;;;;;;12.00;9.60;;;;;;;;;;5046975;28;20186;-77
2023/04/09 02:18:53;;;;;;;11.97;8.57;;;;;;;;;;5049274;28;20181;-77
2023/04/09 02:21:19;;;;;;;12.13;9.03;;;;;;;;;;5047809;28;20178;-76
2023/04/09 02:23:46;;;;;;;13.57;9.93;;;;;;;;;;5036137;28;20210;-76
2023/04/09 02:26:12;;;;;;;12.53;9.43;;;;;;;;;;5024818;28;20185;-75
2023/04/09 02:28:38;;;;;;;13.43;9.90;;;;;;;;;;5052142;28;20960;-75
2023/04/09 02:31:05;;;;;;;13.73;9.97;;;;;;;;;;5056546;28;20182;-75
2023/04/09 02:33:31;;;;;;;13.17;9.30;;;;;;;;;;5030371;28;20546;-75
2023/04/09 02:35:57;;;;;;;12.73;9.67;;;;;;;;;;5048243;28;20273;-76
2023/04/09 02:38:23;;;;;;;11.53;8.97;;;;;;;;;;5047829;28;20736;-75
2023/04/09 02:40:50;;;;;;;13.60;10.03;;;;;;;;;;5046873;28;20170;-76
2023/04/09 02:43:16;;;;;;;12.43;9.23;;;;;;;;;;5036311;28;20880;-77
2023/04/09 02:45:42;;;;;;;14.07;9.63;;;;;;;;;;5048036;28;20275;-76
2023/04/09 02:48:08;;;;;;;13.50;9.70;;;;;;;;;;5027405;28;20637;-76
2023/04/09 02:50:35;;;;;;;14.70;10.63;;;;;;;;;;5028692;28;20222;-75
2023/04/09 02:53:02;;;;;;;13.63;9.47;;;;;;;;;;5047180;28;20236;-75
2023/04/09 02:55:28;;;;;;;14.83;10.33;;;;;;;;;;5048213;28;20178;-77
2023/04/09 02:57:54;;;;;;;13.37;9.50;;;;;;;;;;5046685;28;20186;-75
2023/04/09 03:00:20;;;;;;;15.13;10.73;;;;;;;;;;5043097;28;20190;-78
2023/04/09 03:02:47;;;;;;;13.97;9.63;;;;;;;;;;5021002;28;20291;-76
2023/04/09 03:05:13;;;;;;;13.13;10.30;;;;;;;;;;5040117;28;20296;-77
2023/04/09 03:07:39;;;;;;;13.87;10.70;;;;;;;;;;5022502;28;20256;-77
2023/04/09 03:10:05;;;;;;;15.77;10.90;;;;;;;;;;5027772;28;20178;-76
2023/04/09 03:12:31;;;;;;;13.27;9.60;;;;;;;;;;5037440;28;20294;-76
2023/04/09 03:14:58;;;;;;;15.03;10.40;;;;;;;;;;5047171;28;20249;-75
2023/04/09 03:17:25;;;;;;;14.03;10.53;;;;;;;;;;5043328;28;20189;-75
2023/04/09 03:19:52;;;;;;;14.60;10.50;;;;;;;;;;5020293;28;20197;-75
2023/04/09 03:22:19;;;;;;;14.57;11.07;;;;;;;;;;5046579;28;20206;-76
2023/04/09 03:24:45;;;;;;;14.37;10.93;;;;;;;;;;5040835;28;20294;-76
2023/04/09 03:27:12;;;;;;;14.97;10.57;;;;;;;;;;5046646;28;20190;-75
2023/04/09 03:29:38;;;;;;;14.87;11.17;;;;;;;;;;5062411;28;20208;-75
2023/04/09 03:32:05;;;;;;;14.83;9.93;;;;;;;;;;5046516;28;20232;-75
2023/04/09 03:34:32;;;;;;;13.53;10.00;;;;;;;;;;5043590;28;20279;-77
2023/04/09 03:36:58;;;;;;;14.00;10.33;;;;;;;;;;5046198;28;20189;-75
2023/04/09 03:39:31;;;;;;;13.80;10.20;;;;;;;;;;5042460;28;20190;-75
2023/04/09 03:41:58;;;;;;;13.63;9.87;;;;;;;;;;5034024;28;20206;-75
2023/04/09 03:44:27;;;;;;;15.17;10.93;;;;;;;;;;5059242;28;20209;-76
2023/04/09 03:47:07;;;;;;;15.87;11.73;;;;;;;;;;5032627;28;20209;-76
2023/04/09 03:49:35;;;;;;;16.13;10.87;;;;;;;;;;5039046;28;20185;-76
2023/04/09 03:52:09;;;;;;;16.73;11.90;;;;;;;;;;5048100;28;20231;-76
2023/04/09 03:54:39;;;;;;;13.53;10.83;;;;;;;;;;5050084;28;20177;-76
2023/04/09 03:57:12;;;;;;;16.47;11.53;;;;;;;;;;5050858;28;20185;-75
2023/04/09 03:59:41;;;;;;;15.70;11.57;;;;;;;;;;5056369;28;20263;-77
2023/04/09 04:02:07;;;;;;;14.87;11.40;;;;;;;;;;5049823;28;20275;-75
2023/04/09 04:04:37;;;;;;;16.03;11.70;;;;;;;;;;5049791;28;20603;-77
2023/04/09 04:07:08;;;;;;;19.93;12.57;;;;;;;;;;5047096;28;20261;-75
2023/04/09 04:09:44;;;;;;;17.27;12.23;;;;;;;;;;5050838;28;20260;-75
2023/04/09 04:12:14;;;;;;;15.80;11.50;;;;;;;;;;5008572;28;20206;-75
2023/04/09 04:14:50;;;;;;;14.90;11.60;;;;;;;;;;5041474;28;20196;-75
2023/04/09 04:17:24;;;;;;;17.87;12.77;;;;;;;;;;5048930;28;20550;-77
2023/04/09 04:19:51;;;;;;;15.83;11.53;;;;;;;;;;5050816;28;20232;-78
2023/04/09 04:22:17;;;;;;;16.17;12.10;;;;;;;;;;5059894;28;20205;-77
2023/04/09 04:24:47;;;;;;;16.30;12.37;;;;;;;;;;5050197;28;20206;-77
2023/04/09 04:27:17;;;;;;;16.03;11.93;;;;;;;;;;5069687;28;20189;-75
2023/04/09 04:29:44;;;;;;;17.00;11.87;;;;;;;;;;5059817;28;20236;-77
2023/04/09 04:32:21;;;;;;;17.23;13.00;;;;;;;;;;5049301;28;20204;-75
2023/04/09 04:34:49;;;;;;;18.37;13.30;;;;;;;;;;5043914;28;20182;-78
2023/04/09 04:37:22;;;;;;;17.63;13.00;;;;;;;;;;5032514;28;20182;-78
2023/04/09 04:39:52;;;;;;;17.77;12.37;;;;;;;;;;5050097;28;20190;-76
2023/04/09 04:42:18;;;;;;;19.60;12.90;;;;;;;;;;5049131;28;20208;-79
2023/04/09 04:44:45;;;;;;;16.33;11.63;;;;;;;;;;5027979;28;21769;-76
2023/04/09 04:47:36;;;;;;;17.87;12.90;;;;;;;;;;5051206;28;20220;-77
2023/04/09 04:50:04;;;;;;;17.17;13.03;;;;;;;;;;5048655;28;20200;-76
2023/04/09 04:52:39;;;;;;;16.57;12.13;;;;;;;;;;5048355;28;20229;-75
2023/04/09 04:55:06;;;;;;;16.30;12.37;;;;;;;;;;5033544;28;20239;-76
2023/04/09 04:57:32;;;;;;;17.17;12.57;;;;;;;;;;5043308;28;20217;-75
2023/04/09 04:59:58;;;;;;;17.00;12.30;;;;;;;;;;5049129;28;20763;-75
2023/04/09 05:02:25;;;;;;;18.53;13.60;;;;;;;;;;5045042;28;20213;-77
2023/04/09 05:05:11;;;;;;;19.17;14.27;;;;;;;;;;5046800;28;20217;-77
2023/04/09 05:07:43;;;;;;;18.67;13.90;;;;;;;;;;5044555;28;20649;-75
2023/04/09 05:10:10;;;;;;;19.77;13.73;;;;;;;;;;5048390;28;20209;-76
2023/04/09 05:12:40;;;;;;;19.70;13.87;;;;;;;;;;5042762;28;22136;-76
2023/04/09 05:15:07;;;;;;;18.83;12.57;;;;;;;;;;5043717;28;20204;-78
2023/04/09 05:17:35;;;;;;;18.73;13.77;;;;;;;;;;5047922;28;20223;-79
2023/04/09 05:20:02;;;;;;;19.47;13.43;;;;;;;;;;5023994;28;20559;-75
2023/04/09 05:22:36;;;;;;;18.20;13.03;;;;;;;;;;5047969;28;20248;-75
2023/04/09 05:25:03;;;;;;;20.40;14.37;;;;;;;;;;5031875;28;20210;-75
2023/04/09 05:27:30;;;;;;;19.40;12.67;;;;;;;;;;5040172;28;20500;-77
2023/04/09 05:30:00;;;;;;;17.63;12.03;;;;;;;;;;5043083;28;20609;-77
2023/04/09 05:32:30;;;;;;;18.63;13.53;;;;;;;;;;5012978;28;20229;-76
2023/04/09 05:34:57;;;;;;;19.03;13.23;;;;;;;;;;5035461;28;20217;-76
2023/04/09 05:37:30;;;;;;;17.27;11.97;;;;;;;;;;5047471;28;20205;-75
2023/04/09 05:39:57;;;;;;;18.90;13.80;;;;;;;;;;5048918;28;20239;-76
2023/04/09 05:42:24;;;;;;;17.63;13.17;;;;;;;;;;5030863;28;20197;-76
2023/04/09 05:44:56;;;;;;;19.17;13.33;;;;;;;;;;5032546;28;20210;-77
2023/04/09 05:47:23;;;;;;;19.50;14.03;;;;;;;;;;5044895;28;20269;-76
2023/04/09 05:50:01;;;;;;;21.03;14.70;;;;;;;;;;5042124;28;20190;-75
2023/04/09 05:52:27;;;;;;;21.03;14.67;;;;;;;;;;5029485;28;20209;-76
2023/04/09 05:54:53;;;;;;;19.87;15.37;;;;;;;;;;5037523;28;20193;-75
2023/04/09 05:57:26;;;;;;;18.03;13.63;;;;;;;;;;5041935;28;20170;-75
2023/04/09 05:59:57;;;;;;;19.03;13.93;;;;;;;;;;5043282;28;20194;-75
2023/04/09 06:02:25;;;;;;;18.70;13.33;;;;;;;;;;5043897;28;20202;-75
2023/04/09 06:04:53;;;;;;;20.33;15.10;;;;;;;;;;5047992;28;20209;-80
2023/04/09 06:07:19;;;;;;;19.43;14.07;;;;;;;;;;5031490;28;20258;-78
2023/04/09 06:09:46;;;;;;;20.80;15.13;;;;;;;;;;5047915;28;20181;-75
2023/04/09 06:12:13;;;;;;;21.27;15.00;;;;;;;;;;5051151;28;20205;-75
2023/04/09 06:14:39;;;;;;;21.20;15.20;;;;;;;;;;5026709;28;20369;-75
2023/04/09 06:17:05;;;;;;;21.43;15.27;;;;;;;;;;5045807;28;20182;-75
2023/04/09 06:19:31;;;;;;;23.47;15.67;;;;;;;;;;5045575;28;20190;-76
2023/04/09 06:21:57;;;;;;;21.50;16.03;;;;;;;;;;5031082;28;20878;-77
2023/04/09 06:24:23;;;;;;;21.93;16.20;;;;;;;;;;5047000;28;20205;-75
2023/04/09 06:26:50;;;;;;;22.43;16.20;;;;;;;;;;5040829;28;20671;-78
2023/04/09 06:29:16;;;;;;;20.57;15.73;;;;;;;;;;5046292;28;20190;-77
2023/04/09 06:31:42;;;;;;;19.53;14.80;;;;;;;;;;5045434;28;20182;-77
2023/04/09 06:34:09;;;;;;;21.43;15.37;;;;;;;;;;5047514;28;20178;-77
2023/04/09 06:36:36;;;;;;;23.00;15.57;;;;;;;;;;5045692;28;20192;-74
2023/04/09 06:39:02;;;;;;;20.97;15.10;;;;;;;;;;5043317;28;20228;-76
2023/04/09 06:41:29;;;;;;;20.33;14.90;;;;;;;;;;5043960;28;20291;-74
2023/04/09 06:43:55;;;;;;;19.10;13.87;;;;;;;;;;5040896;28;20688;-75
2023/04/09 06:46:22;;;;;;;19.33;14.93;;;;;;;;;;5034679;28;20186;-75
2023/04/09 06:48:49;;;;;;;22.73;15.87;;;;;;;;;;5041709;28;20213;-75
2023/04/09 06:51:15;;;;;;;21.60;15.70;;;;;;;;;;5048446;28;20188;-83
2023/04/09 06:53:41;;;;;;;19.03;14.67;;;;;;;;;;5021898;28;20340;-74
2023/04/09 06:56:07;;;;;;;20.40;15.30;;;;;;;;;;5046646;28;20265;-74
2023/04/09 06:58:33;;;;;;;19.13;14.20;;;;;;;;;;5048788;28;20227;-77
2023/04/09 07:01:00;;;;;;;21.70;15.93;;;;;;;;;;5038819;28;20186;-76
2023/04/09 07:03:29;;;;;;;19.20;13.93;;;;;;;;;;5037298;28;20450;-73
2023/04/09 07:05:56;;;;;;;19.23;14.37;;;;;;;;;;5061887;28;20232;-74
2023/04/09 07:08:22;;;;;;;19.77;15.63;;;;;;;;;;5046101;28;20626;-73
2023/04/09 07:10:49;;;;;;;20.40;15.03;;;;;;;;;;5044816;28;20252;-73
2023/04/09 07:13:15;;;;;;;19.70;14.80;;;;;;;;;;5040708;28;20197;-73
2023/04/09 07:15:41;;;;;;;17.97;13.73;;;;;;;;;;5049837;28;20182;-73
2023/04/09 07:18:10;;;;;;;17.07;13.07;;;;;;;;;;5048873;28;20285;-74
2023/04/09 07:20:36;;;;;;;18.60;14.03;;;;;;;;;;5051195;28;20521;-73
2023/04/09 07:23:02;;;;;;;16.47;12.77;;;;;;;;;;5044335;28;20531;-73
2023/04/09 07:25:28;;;;;;;18.83;14.67;;;;;;;;;;5044239;28;20697;-74
2023/04/09 07:27:55;;;;;;;22.73;16.00;;;;;;;;;;5048732;28;20192;-74
2023/04/09 07:30:22;;;;;;;18.93;14.57;;;;;;;;;;5046740;28;20183;-71
2023/04/09 07:32:49;;;;;;;18.93;13.97;;;;;;;;;;5043119;28;20229;-74
2023/04/09 07:35:15;;;;;;;17.70;13.07;;;;;;;;;;5036388;28;20264;-72
2023/04/09 07:37:41;;;;;;;18.57;13.27;;;;;;;;;;5063031;28;20186;-71
2023/04/09 07:40:08;;;;;;;17.93;13.87;;;;;;;;;;5046733;28;20196;-75
2023/04/09 07:42:36;;;;;;;18.97;14.20;;;;;;;;;;5047223;28;20210;-80
2023/04/09 07:45:02;;;;;;;20.53;14.23;;;;;;;;;;5044666;28;20889;-80
2023/04/09 07:47:28;;;;;;;21.23;16.80;;;;;;;;;;5053264;28;20185;-80
2023/04/09 07:49:55;;;;;;;19.77;15.67;;;;;;;;;;5052479;28;20269;-79
2023/04/09 07:52:21;;;;;;;17.43;13.10;;;;;;;;;;5046052;28;20213;-80
2023/04/09 07:54:47;;;;;;;15.13;12.73;;;;;;;;;;5054684;28;20185;-79
2023/04/09 07:57:13;;;;;;;15.67;12.33;;;;;;;;;;5054275;28;20825;-79
2023/04/09 07:59:45;;;;;;;16.33;12.87;;;;;;;;;;5070833;28;20184;-79
2023/04/09 08:02:11;;;;;;;16.33;13.40;;;;;;;;;;5057424;28;20209;-80
2023/04/09 08:04:37;;;;;;;15.53;12.60;;;;;;;;;;5054812;28;20209;-80
2023/04/09 08:07:04;;;;;;;15.83;12.33;;;;;;;;;;5055076;28;20189;-79
2023/04/09 08:09:30;;;;;;;13.70;11.03;;;;;;;;;;5037508;28;20235;-79
2023/04/09 08:11:56;;;;;;;13.80;12.07;;;;;;;;;;5053214;28;20665;-80
2023/04/09 08:14:22;;;;;;;15.73;12.47;;;;;;;;;;5053299;28;20604;-79
2023/04/09 08:16:49;;;;;;;12.77;10.90;;;;;;;;;;5054894;28;20190;-80
2023/04/09 08:19:16;;;;;;;13.23;10.77;;;;;;;;;;5054688;28;20182;-80
2023/04/09 08:21:43;;;;;;;14.60;11.47;;;;;;;;;;5045795;28;20181;-80
2023/04/09 08:24:10;;;;;;;15.13;11.87;;;;;;;;;;5052049;28;20704;-79
2023/04/09 08:26:36;;;;;;;11.97;10.60;;;;;;;;;;5053213;28;20185;-79
2023/04/09 08:29:03;;;;;;;13.77;12.10;;;;;;;;;;5052739;28;20245;-80
2023/04/09 08:31:30;;;;;;;22.03;15.17;;;;;;;;;;5050357;28;20202;-80
2023/04/09 08:33:56;;;;;;;16.40;12.57;;;;;;;;;;5049123;28;20182;-80
2023/04/09 08:36:22;;;;;;;14.97;11.70;;;;;;;;;;5048033;28;20181;-79
2023/04/09 08:38:48;;;;;;;13.50;10.30;;;;;;;;;;5053801;28;20190;-80
2023/04/09 08:41:27;;;;;;;13.50;10.73;;;;;;;;;;5050180;28;20205;-79
2023/04/09 08:43:54;;;;;;;13.17;10.50;;;;;;;;;;5031652;28;20967;-79
2023/04/09 08:46:20;;;;;;;14.43;10.90;;;;;;;;;;5033444;28;20257;-79
2023/04/09 08:48:47;;;;;;;11.37;9.23;;;;;;;;;;5046725;28;20239;-79
2023/04/09 08:51:14;;;;;;;13.07;9.90;;;;;;;;;;5056870;28;20672;-79
2023/04/09 08:53:45;;;;;;;15.03;10.33;;;;;;;;;;5033737;28;20610;-80
2023/04/09 08:56:12;;;;;;;10.60;8.80;;;;;;;;;;5051871;28;20189;-80
2023/04/09 08:58:41;;;;;;;9.80;8.40;;;;;;;;;;5051919;28;20185;-79
2023/04/09 09:01:17;;;;;;;9.77;8.07;;;;;;;;;;5049130;28;20190;-80
2023/04/09 09:04:07;;;;;;;10.77;8.63;;;;;;;;;;5039670;28;20229;-80
2023/04/09 09:06:34;;;;;;;9.70;7.83;;;;;;;;;;5042699;28;20198;-79
2023/04/09 09:09:00;;;;;;;9.70;8.40;;;;;;;;;;5054120;28;20185;-79
2023/04/09 09:11:26;;;;;;;10.40;7.90;;;;;;;;;;5053159;28;20170;-79
2023/04/09 09:14:03;;;;;;;9.23;7.63;;;;;;;;;;5056377;28;20250;-79
2023/04/09 09:16:31;;;;;;;9.83;7.47;;;;;;;;;;5046408;28;20184;-79
2023/04/09 09:18:58;;;;;;;9.43;8.40;;;;;;;;;;5060783;28;20191;-78
2023/04/09 09:21:26;;;;;;;8.67;7.73;;;;;;;;;;5059695;28;20177;-79
2023/04/09 09:23:52;;;;;;;10.83;8.10;;;;;;;;;;5058579;28;20205;-79
2023/04/09 09:26:20;;;;;;;8.97;6.90;;;;;;;;;;5060992;28;20194;-79
2023/04/09 09:28:47;;;;;;;8.60;7.30;;;;;;;;;;5046674;28;20191;-79
2023/04/09 09:31:13;;;;;;;8.67;7.50;;;;;;;;;;5043775;28;20218;-79
2023/04/09 09:33:40;;;;;;;8.57;6.90;;;;;;;;;;5048038;28;20218;-79
2023/04/09 09:36:09;;;;;;;9.87;7.23;;;;;;;;;;5054810;28;20190;-79
2023/04/09 09:38:51;;;;;;;8.47;7.13;;;;;;;;;;5061892;28;20552;-79
2023/04/09 09:41:18;;;;;;;7.77;6.97;;;;;;;;;;5040899;28;20212;-79
2023/04/09 09:43:45;;;;;;;6.77;6.07;;;;;;;;;;5056745;28;21027;-79
2023/04/09 09:46:11;;;;;;;10.67;7.47;;;;;;;;;;5056309;28;20213;-80
2023/04/09 09:48:37;;;;;;;9.77;7.10;;;;;;;;;;5054543;28;20200;-79
2023/04/09 09:51:08;;;;;;;8.50;7.53;;;;;;;;;;5055297;28;20177;-80
2023/04/09 09:53:38;;;;;;;7.07;6.33;;;;;;;;;;5058989;28;20523;-80
2023/04/09 09:56:05;;;;;;;7.40;6.60;;;;;;;;;;5052959;28;20205;-79
2023/04/09 09:58:39;;;;;;;6.67;5.90;;;;;;;;;;5053978;28;20693;-79
2023/04/09 10:01:10;;;;;;;6.60;5.90;;;;;;;;;;5054201;28;20210;-79
2023/04/09 10:03:38;;;;;;;6.73;6.03;;;;;;;;;;5054501;28;20292;-80
2023/04/09 10:06:05;;;;;;;7.57;6.07;;;;;;;;;;5052209;28;20797;-79
2023/04/09 10:08:32;;;;;;;7.20;6.50;;;;;;;;;;5061728;28;20177;-79
2023/04/09 10:11:00;;;;;;;8.07;7.27;;;;;;;;;;5048559;28;20178;-79
2023/04/09 10:13:31;;;;;;;7.23;6.53;;;;;;;;;;5049350;28;20198;-79
2023/04/09 10:15:58;;;;;;;11.80;8.93;;;;;;;;;;5049507;28;20198;-79
2023/04/09 10:18:24;;;;;;;11.43;8.87;;;;;;;;;;5049699;28;20177;-80
2023/04/09 10:20:58;;;;;;;8.10;7.07;;;;;;;;;;5050188;28;20178;-79
2023/04/09 10:23:31;;;;;;;6.57;5.83;;;;;;;;;;5068144;28;20691;-79
2023/04/09 10:25:57;;;;;;;6.80;6.10;;;;;;;;;;5012975;28;20289;-81
2023/04/09 10:28:23;;;;;;;6.77;6.10;;;;;;;;;;5053177;28;20178;-78
2023/04/09 10:30:50;;;;;;;6.70;6.00;;;;;;;;;;5037376;28;20177;-76
2023/04/09 10:33:25;;;;;;;7.07;6.37;;;;;;;;;;5044933;28;20317;-75
2023/04/09 10:35:51;;;;;;;6.30;5.70;;;;;;;;;;5018781;28;20202;-79
2023/04/09 10:38:32;;;;;;;8.07;6.30;;;;;;;;;;5045027;28;20192;-79
2023/04/09 10:40:58;;;;;;;7.10;5.73;;;;;;;;;;5052670;28;20186;-80
2023/04/09 10:43:24;;;;;;;11.20;8.93;;;;;;;;;;5046459;28;20711;-80
2023/04/09 10:45:53;;;;;;;8.50;7.40;;;;;;;;;;5035043;28;20209;-80
2023/04/09 10:48:20;;;;;;;6.40;5.80;;;;;;;;;;5045340;28;21399;-79
2023/04/09 10:50:51;;;;;;;29.47;21.10;;;;;;;;;;5049056;28;20689;-79
2023/04/09 10:53:21;;;;;;;10.90;9.37;;;;;;;;;;5045508;28;20224;-78
2023/04/09 10:55:49;;;;;;;8.00;7.20;;;;;;;;;;5051489;28;20173;-76
2023/04/09 10:58:16;;;;;;;14.17;12.03;;;;;;;;;;5040891;28;20694;-83
2023/04/09 11:00:43;;;;;;;7.90;7.00;;;;;;;;;;5032913;28;20212;-82
2023/04/09 11:03:19;;;;;;;7.03;6.33;;;;;;;;;;5030699;28;20443;-78
2023/04/09 11:05:48;;;;;;;6.33;5.73;;;;;;;;;;5043828;28;20227;-78
2023/04/09 11:08:16;;;;;;;7.37;5.90;;;;;;;;;;5041389;28;20650;-77
2023/04/09 11:10:43;;;;;;;6.90;6.20;;;;;;;;;;5047098;28;20598;-78
2023/04/09 11:13:13;;;;;;;6.20;5.60;;;;;;;;;;5037648;28;20204;-72
2023/04/09 11:15:39;;;;;;;5.70;5.20;;;;;;;;;;5049157;28;20186;-72
2023/04/09 11:18:06;;;;;;;6.07;5.30;;;;;;;;;;5045030;28;20201;-75
2023/04/09 11:20:33;;;;;;;6.27;5.67;;;;;;;;;;5034509;28;20220;-75
2023/04/09 11:22:59;;;;;;;8.43;6.33;;;;;;;;;;5043855;28;20279;-79
2023/04/09 11:25:27;;;;;;;11.90;10.60;;;;;;;;;;5043003;28;20209;-75
2023/04/09 11:27:53;;;;;;;12.40;11.00;;;;;;;;;;5037315;28;20667;-73
2023/04/09 11:30:20;;;;;;;30.87;26.03;;;;;;;;;;5037850;28;20198;-74
2023/04/09 11:32:47;;;;;;;11.87;10.53;;;;;;;;;;5038883;28;21674;-74
2023/04/09 11:35:17;;;;;;;7.80;6.53;;;;;;;;;;5037790;28;20551;-73
2023/04/09 11:37:44;;;;;;;6.50;5.80;;;;;;;;;;5034895;28;20295;-76
2023/04/09 11:40:16;;;;;;;6.80;6.10;;;;;;;;;;5041433;28;20178;-79
2023/04/09 11:42:43;;;;;;;5.60;5.10;;;;;;;;;;5041614;28;20209;-76
2023/04/09 11:45:10;;;;;;;5.30;4.80;;;;;;;;;;5044156;28;20206;-77
2023/04/09 11:47:38;;;;;;;5.70;5.20;;;;;;;;;;5045682;28;20189;-78
2023/04/09 11:50:06;;;;;;;4.90;4.43;;;;;;;;;;5045775;28;20247;-78
2023/04/09 11:52:34;;;;;;;6.07;5.40;;;;;;;;;;5046714;28;20222;-78
2023/04/09 11:55:07;;;;;;;5.47;4.57;;;;;;;;;;5042516;28;20182;-78
2023/04/09 11:57:37;;;;;;;5.40;4.90;;;;;;;;;;5044815;28;20603;-78
2023/04/09 12:00:07;;;;;;;5.20;4.70;;;;;;;;;;5046214;28;20584;-78
2023/04/09 12:02:36;;;;;;;5.40;4.90;;;;;;;;;;5059372;28;20215;-78
2023/04/09 12:05:06;;;;;;;5.23;4.73;;;;;;;;;;5023584;28;20251;-78
2023/04/09 12:07:36;;;;;;;4.97;4.37;;;;;;;;;;5049138;28;20553;-78
2023/04/09 12:10:04;;;;;;;7.07;6.30;;;;;;;;;;5047170;28;20200;-78
2023/04/09 12:12:30;;;;;;;11.47;8.57;;;;;;;;;;5048452;28;20680;-78
2023/04/09 12:14:58;;;;;;;6.80;6.10;;;;;;;;;;5050555;28;20190;-77
2023/04/09 12:17:24;;;;;;;5.80;5.20;;;;;;;;;;5018497;28;20649;-78
2023/04/09 12:19:50;;;;;;;4.50;4.10;;;;;;;;;;5045743;28;20221;-80
2023/04/09 12:22:16;;;;;;;4.57;4.17;;;;;;;;;;5041513;28;20210;-79
2023/04/09 12:24:43;;;;;;;7.30;6.40;;;;;;;;;;5047340;28;20290;-78
2023/04/09 12:27:09;;;;;;;5.27;4.77;;;;;;;;;;5049170;28;20782;-79
2023/04/09 12:29:35;;;;;;;4.53;4.13;;;;;;;;;;5046565;28;20191;-79
2023/04/09 12:32:02;;;;;;;5.07;4.57;;;;;;;;;;5050784;28;20293;-79
2023/04/09 12:34:28;;;;;;;4.87;4.47;;;;;;;;;;5046987;28;20213;-79
2023/04/09 12:36:54;;;;;;;5.17;4.20;;;;;;;;;;5033319;28;20216;-79
2023/04/09 12:39:20;;;;;;;4.50;4.10;;;;;;;;;;5049540;28;20205;-79
2023/04/09 12:41:46;;;;;;;4.40;4.00;;;;;;;;;;5044555;28;20621;-79
2023/04/09 12:44:13;;;;;;;4.40;4.00;;;;;;;;;;5041520;28;20178;-78
2023/04/09 12:46:39;;;;;;;4.33;4.00;;;;;;;;;;5054994;28;20194;-79
2023/04/09 12:49:05;;;;;;;4.97;4.47;;;;;;;;;;5049320;28;20175;-79
2023/04/09 12:51:31;;;;;;;4.50;4.10;;;;;;;;;;5051419;28;20531;-79
2023/04/09 12:53:57;;;;;;;19.33;12.83;;;;;;;;;;5046860;28;20193;-79
2023/04/09 12:56:23;;;;;;;4.50;4.10;;;;;;;;;;5047792;28;20271;-79
2023/04/09 12:58:50;;;;;;;4.20;3.80;;;;;;;;;;5049397;28;20730;-79
2023/04/09 13:01:16;;;;;;;3.80;3.50;;;;;;;;;;5029826;28;20690;-78
2023/04/09 13:03:43;;;;;;;4.60;4.20;;;;;;;;;;5045207;28;20700;-79
2023/04/09 13:06:13;;;;;;;3.90;3.60;;;;;;;;;;5041789;28;20275;-74
2023/04/09 13:08:40;;;;;;;5.23;4.70;;;;;;;;;;5045683;28;20828;-79
2023/04/09 13:11:07;;;;;;;3.70;3.40;;;;;;;;;;5045746;28;20355;-82
2023/04/09 13:13:36;;;;;;;4.03;3.63;;;;;;;;;;5048643;28;20210;-78
2023/04/09 13:16:08;;;;;;;4.03;3.60;;;;;;;;;;5042112;28;20193;-78
2023/04/09 13:18:36;;;;;;;4.57;4.17;;;;;;;;;;5053603;28;20222;-80
2023/04/09 13:21:02;;;;;;;5.93;5.33;;;;;;;;;;5050198;28;20190;-80
2023/04/09 13:23:29;;;;;;;8.67;7.70;;;;;;;;;;5044181;28;20216;-77
2023/04/09 13:25:55;;;;;;;4.20;3.90;;;;;;;;;;5043942;28;20212;-77
2023/04/09 13:28:21;;;;;;;4.03;3.63;;;;;;;;;;5046502;28;20611;-76
2023/04/09 13:30:51;;;;;;;4.20;3.90;;;;;;;;;;5061194;28;20687;-74
2023/04/09 13:33:34;;;;;;;3.80;3.50;;;;;;;;;;5048074;28;20728;-73
2023/04/09 13:36:02;;;;;;;3.47;3.20;;;;;;;;;;5043999;28;20543;-74
2023/04/09 13:38:28;;;;;;;4.37;3.97;;;;;;;;;;5036383;28;20649;-74
2023/04/09 13:40:56;;;;;;;3.50;3.20;;;;;;;;;;5046026;28;20183;-73
2023/04/09 13:43:26;;;;;;;3.37;3.07;;;;;;;;;;5039440;28;20204;-74
2023/04/09 13:45:54;;;;;;;4.50;4.10;;;;;;;;;;5045304;28;20222;-74
2023/04/09 13:48:20;;;;;;;6.40;5.20;;;;;;;;;;5036523;28;20182;-74
2023/04/09 13:50:47;;;;;;;4.73;4.23;;;;;;;;;;5034649;28;20300;-74
2023/04/09 13:53:13;;;;;;;3.33;3.10;;;27.40;33.10;;;;;;5034282;28;20215;-74
2023/04/09 13:55:39;;;;;;;4.90;4.50;;;26.20;31.70;;;;;;5032238;28;20362;-74
2023/04/09 13:58:05;;;;;;;3.50;3.20;;;24.80;33.30;;;;;;5035612;28;20190;-74
2023/04/09 14:00:32;;;;;;;3.23;3.00;;;23.20;34.30;;;;;;5037162;28;20192;-73
2023/04/09 14:02:58;;;;;;;3.40;3.10;;;22.70;35.40;;;;;;5037921;28;20216;-73
2023/04/09 14:05:24;;;;;;;3.60;3.30;;;22.40;35.90;;;;;;5046497;28;20214;-74
2023/04/09 14:07:50;;;;;;;3.67;3.37;;;21.70;36.40;;;;;;5043014;28;20201;-73
2023/04/09 14:10:16;;;;;;;3.70;3.40;;;21.50;37.00;;;;;;5043897;28;20186;-74
2023/04/09 14:12:41;;;;;;;3.83;3.53;;;21.20;37.40;;;;;;5040276;28;20293;-73
2023/04/09 14:15:09;;;;;;;3.67;3.37;;;21.20;37.60;;;;;;5039629;28;20296;-74
2023/04/09 14:17:35;;;;;;;3.30;3.00;;;21.20;37.80;;;;;;5039930;28;20312;-73
2023/04/09 14:20:02;;;;;;;3.47;3.17;;;21.10;38.20;;;;;;5041376;28;20194;-75
2023/04/09 14:22:30;;;;;;;3.70;3.40;;;;;;;;;;5036394;28;20311;-74
2023/04/09 14:24:56;;;;;;;3.50;3.20;;;;;;;;;;5034649;28;20209;-73
2023/04/09 14:27:23;;;;;;;3.17;2.87;;;;;;;;;;5042414;28;20275;-74
2023/04/09 14:29:50;;;;;;;3.10;2.90;;;;;;;;;;5040481;28;20231;-74